createdAt,value
2018-06-12T00:00:48.819Z,77.10
2018-06-12T00:03:19.252Z,76.90
2018-06-12T00:05:49.837Z,76.90
2018-06-12T00:08:20.942Z,76.50
2018-06-12T00:10:51.519Z,76.30
2018-06-12T00:13:22.099Z,76.20
2018-06-12T00:15:56.036Z,76.10
2018-06-12T00:18:26.902Z,76.60
2018-06-12T00:20:58.097Z,76.70
2018-06-12T00:23:28.463Z,76.40
2018-06-12T00:25:58.754Z,76.00
2018-06-12T00:28:29.272Z,75.60
2018-06-12T00:30:59.539Z,75.70
2018-06-12T00:33:29.863Z,75.60
2018-06-12T00:36:00.099Z,75.90
2018-06-12T00:38:30.459Z,76.00
2018-06-12T00:41:00.688Z,75.90
2018-06-12T00:43:30.976Z,76.00
2018-06-12T00:46:01.243Z,76.10
2018-06-12T00:48:31.766Z,76.10
2018-06-12T00:51:02.021Z,76.10
2018-06-12T00:53:32.538Z,76.00
2018-06-12T00:56:02.888Z,75.80
2018-06-12T00:58:33.183Z,75.60
2018-06-12T01:01:03.658Z,75.50
2018-06-12T01:03:33.947Z,76.20
2018-06-12T01:06:04.784Z,76.50
2018-06-12T01:08:35.043Z,76.70
2018-06-12T01:11:05.386Z,76.60
2018-06-12T01:13:36.081Z,76.50
2018-06-12T01:16:06.399Z,76.60
2018-06-12T01:21:06.531Z,76.10
2018-06-12T01:23:37.174Z,75.90
2018-06-12T01:28:37.287Z,75.80
2018-06-12T01:31:07.847Z,75.40
2018-06-12T01:33:38.112Z,75.30
2018-06-12T01:36:08.569Z,75.70
2018-06-12T01:38:38.823Z,76.40
2018-06-12T01:41:09.098Z,76.30
2018-06-12T01:43:39.352Z,76.50
2018-06-12T01:46:09.659Z,76.40
2018-06-12T01:48:39.898Z,76.30
2018-06-12T01:51:10.203Z,76.10
2018-06-12T01:53:40.430Z,76.30
2018-06-12T01:56:10.691Z,76.50
2018-06-12T01:58:40.962Z,76.90
2018-06-12T02:01:11.334Z,76.70
2018-06-12T02:03:41.591Z,76.20
2018-06-12T02:06:15.242Z,76.30
2018-06-12T02:08:45.475Z,76.30
2018-06-12T02:11:15.754Z,77.00
2018-06-12T02:13:46.038Z,76.70
2018-06-12T02:16:16.574Z,77.40
2018-06-12T02:18:47.207Z,76.60
2018-06-12T02:21:17.467Z,76.20
2018-06-12T02:23:47.766Z,75.20
2018-06-12T02:26:18.082Z,75.80
2018-06-12T02:28:48.420Z,75.00
2018-06-12T02:31:18.737Z,75.00
2018-06-12T02:33:49.052Z,75.20
2018-06-12T02:36:19.739Z,75.30
2018-06-12T02:38:49.977Z,75.30
2018-06-12T02:41:20.463Z,75.60
2018-06-12T02:43:50.716Z,75.60
2018-06-12T02:46:21.070Z,75.40
2018-06-12T02:48:51.770Z,74.80
2018-06-12T02:51:22.083Z,74.70
2018-06-12T02:53:52.395Z,74.60
2018-06-12T02:56:22.798Z,74.70
2018-06-12T02:58:53.045Z,74.80
2018-06-12T03:01:23.518Z,75.20
2018-06-12T03:03:53.743Z,76.10
2018-06-12T03:06:24.448Z,76.40
2018-06-12T03:08:54.675Z,75.90
2018-06-12T03:11:24.925Z,75.30
2018-06-12T03:13:55.184Z,75.30
2018-06-12T03:16:25.949Z,74.70
2018-06-12T03:18:56.195Z,74.80
2018-06-12T03:21:26.874Z,74.90
2018-06-12T03:23:57.083Z,74.70
2018-06-12T03:26:27.404Z,74.40
2018-06-12T03:28:57.644Z,74.30
2018-06-12T03:31:28.499Z,74.10
2018-06-12T03:33:58.718Z,74.00
2018-06-12T03:36:29.124Z,74.20
2018-06-12T03:38:59.359Z,74.40
2018-06-12T03:41:29.632Z,75.00
2018-06-12T03:43:59.846Z,76.10
2018-06-12T03:46:30.226Z,75.50
2018-06-12T03:49:00.440Z,75.50
2018-06-12T03:51:30.691Z,75.60
2018-06-12T03:54:00.949Z,75.50
2018-06-12T03:56:32.107Z,74.80
2018-06-12T03:59:06.761Z,73.80
2018-06-12T04:01:37.354Z,73.90
2018-06-12T04:04:07.566Z,74.40
2018-06-12T04:06:39.646Z,74.50
2018-06-12T04:09:10.229Z,74.70
2018-06-12T04:11:40.475Z,75.00
2018-06-12T04:14:10.719Z,75.30
2018-06-12T04:16:41.035Z,75.20
2018-06-12T04:19:11.313Z,75.30
2018-06-12T04:21:41.504Z,75.00
2018-06-12T04:24:11.791Z,75.00
2018-06-12T04:26:42.018Z,74.80
2018-06-12T04:29:12.320Z,74.30
2018-06-12T04:31:42.600Z,74.30
2018-06-12T04:34:12.895Z,74.30
2018-06-12T04:36:43.163Z,74.50
2018-06-12T04:39:13.446Z,74.30
2018-06-12T04:41:43.711Z,74.00
2018-06-12T04:44:13.955Z,74.00
2018-06-12T04:46:44.264Z,74.10
2018-06-12T04:49:14.519Z,74.10
2018-06-12T04:51:47.685Z,74.00
2018-06-12T04:54:18.476Z,73.10
2018-06-12T04:56:48.932Z,72.60
2018-06-12T04:59:19.255Z,72.20
2018-06-12T05:01:58.399Z,71.50
2018-06-12T05:04:28.729Z,71.00
2018-06-12T05:06:59.158Z,71.00
2018-06-12T05:09:29.394Z,71.80
2018-06-12T05:11:59.709Z,72.10
2018-06-12T05:14:29.959Z,72.20
2018-06-12T05:17:00.225Z,72.60
2018-06-12T05:19:30.749Z,72.10
2018-06-12T05:22:01.000Z,72.10
2018-06-12T05:24:31.207Z,72.50
2018-06-12T05:27:01.685Z,72.60
2018-06-12T05:29:31.914Z,72.90
2018-06-12T05:32:02.529Z,72.70
2018-06-12T05:34:32.745Z,72.20
2018-06-12T05:37:03.331Z,71.50
2018-06-12T05:39:33.850Z,70.90
2018-06-12T05:42:04.162Z,71.00
2018-06-12T05:44:34.366Z,71.00
2018-06-12T05:47:15.786Z,71.10
2018-06-12T05:49:46.011Z,71.60
2018-06-12T05:52:20.895Z,70.90
2018-06-12T05:54:51.366Z,70.80
2018-06-12T05:57:21.907Z,70.80
2018-06-12T05:59:52.145Z,70.50
2018-06-12T06:02:23.987Z,70.30
2018-06-12T06:04:54.426Z,69.10
2018-06-12T06:07:25.243Z,68.90
2018-06-12T06:09:55.488Z,67.90
2018-06-12T06:12:26.167Z,66.70
2018-06-12T06:14:56.415Z,66.20
2018-06-12T06:17:26.728Z,66.00
2018-06-12T06:20:00.774Z,64.70
2018-06-12T06:22:54.843Z,63.80
2018-06-12T06:25:25.419Z,63.20
2018-06-12T06:27:55.674Z,62.90
2018-06-12T06:30:30.160Z,61.80
2018-06-12T06:33:00.379Z,61.60
2018-06-12T06:35:30.681Z,62.00
2018-06-12T06:38:00.889Z,60.20
2018-06-12T06:40:31.151Z,59.70
2018-06-12T06:43:01.397Z,58.50
2018-06-12T06:45:31.664Z,58.60
2018-06-12T06:48:01.901Z,58.70
2018-06-12T06:50:32.200Z,59.00
2018-06-12T06:53:02.458Z,58.60
2018-06-12T06:55:32.720Z,57.70
2018-06-12T06:58:03.090Z,57.40
2018-06-12T07:00:33.366Z,58.50
2018-06-12T07:03:03.580Z,57.80
2018-06-12T07:05:33.830Z,57.60
2018-06-12T07:08:04.054Z,59.10
2018-06-12T07:10:34.331Z,59.90
2018-06-12T07:13:04.549Z,58.90
2018-06-12T07:15:34.930Z,58.30
2018-06-12T07:21:20.733Z,58.60
2018-06-12T07:23:51.641Z,58.30
2018-06-12T07:26:22.032Z,58.80
2018-06-12T07:28:52.415Z,58.30
2018-06-12T07:31:22.759Z,59.40
2018-06-12T07:33:53.098Z,59.50
2018-06-12T07:36:23.366Z,60.70
2018-06-12T07:38:53.719Z,59.30
2018-06-12T07:41:24.006Z,59.20
2018-06-12T07:43:54.271Z,59.90
2018-06-12T07:46:24.594Z,59.00
2018-06-12T07:48:54.894Z,59.10
2018-06-12T07:51:25.218Z,59.20
2018-06-12T07:53:55.634Z,58.30
2018-06-12T07:56:25.900Z,59.50
2018-06-12T07:59:07.336Z,57.20
2018-06-12T08:01:43.829Z,57.60
2018-06-12T08:04:14.112Z,57.30
2018-06-12T08:06:44.455Z,57.60
2018-06-12T08:09:14.698Z,57.40
2018-06-12T08:11:44.964Z,57.50
2018-06-12T08:14:15.259Z,57.00
2018-06-12T08:16:45.500Z,58.40
2018-06-12T08:19:15.780Z,57.60
2018-06-12T08:21:46.051Z,57.90
2018-06-12T08:24:16.375Z,59.20
2018-06-12T08:26:46.727Z,57.80
2018-06-12T08:29:17.212Z,57.50
2018-06-12T08:31:47.494Z,57.70
2018-06-12T08:34:18.003Z,57.60
2018-06-12T08:36:48.806Z,57.00
2018-06-12T08:39:20.016Z,57.00
2018-06-12T08:41:50.936Z,57.60
2018-06-12T08:44:21.663Z,57.80
2018-06-12T08:46:53.195Z,57.00
2018-06-12T08:49:23.989Z,57.60
2018-06-12T08:51:54.366Z,57.90
2018-06-12T08:54:24.811Z,57.40
2018-06-12T08:56:55.080Z,57.30
2018-06-12T08:59:25.343Z,58.20
2018-06-12T09:01:55.707Z,58.20
2018-06-12T09:04:25.954Z,56.10
2018-06-12T09:09:26.875Z,53.70
2018-06-12T09:11:57.848Z,52.40
2018-06-12T09:14:29.516Z,54.40
2018-06-12T09:16:59.874Z,55.40
2018-06-12T09:19:30.139Z,57.30
2018-06-12T09:22:00.582Z,58.80
2018-06-12T09:24:30.805Z,59.30
2018-06-12T09:27:01.078Z,61.10
2018-06-12T09:29:31.387Z,59.90
2018-06-12T09:32:02.523Z,57.10
2018-06-12T09:34:32.819Z,58.40
2018-06-12T09:37:03.593Z,59.30
2018-06-12T09:39:33.899Z,57.60
2018-06-12T09:42:04.633Z,57.60
2018-06-12T09:44:34.869Z,58.60
2018-06-12T09:47:05.360Z,58.00
2018-06-12T09:49:36.217Z,58.40
2018-06-12T09:52:09.616Z,58.60
2018-06-12T09:54:47.487Z,57.30
2018-06-12T09:57:19.956Z,57.40
2018-06-12T09:59:51.777Z,56.80
2018-06-12T10:02:23.096Z,57.60
2018-06-12T10:04:54.499Z,57.70
2018-06-12T10:07:25.667Z,58.20
2018-06-12T10:09:56.035Z,57.00
2018-06-12T10:12:26.847Z,56.30
2018-06-12T10:15:02.072Z,56.70
2018-06-12T10:17:39.282Z,56.00
2018-06-12T10:20:10.251Z,56.90
2018-06-12T10:22:40.932Z,56.20
2018-06-12T10:25:11.329Z,56.50
2018-06-12T10:27:41.767Z,56.00
2018-06-12T10:30:12.349Z,55.80
2018-06-12T10:32:44.804Z,55.90
2018-06-12T10:35:16.279Z,55.20
2018-06-12T10:37:47.919Z,55.20
2018-06-12T10:40:18.390Z,55.60
2018-06-12T10:42:48.739Z,56.40
2018-06-12T10:45:19.376Z,55.60
2018-06-12T10:47:49.675Z,54.80
2018-06-12T10:50:20.647Z,54.20
2018-06-12T10:52:51.041Z,55.10
2018-06-12T10:55:21.279Z,54.60
2018-06-12T10:57:51.811Z,54.30
2018-06-12T11:00:23.067Z,53.40
2018-06-12T11:02:53.354Z,52.50
2018-06-12T11:05:23.612Z,53.20
2018-06-12T11:07:53.951Z,54.80
2018-06-12T11:10:24.435Z,54.10
2018-06-12T11:12:55.151Z,51.60
2018-06-12T11:15:25.724Z,50.50
2018-06-12T11:17:56.031Z,50.80
2018-06-12T11:20:26.449Z,49.70
2018-06-12T11:22:57.027Z,48.80
2018-06-12T11:25:27.375Z,48.40
2018-06-12T11:27:57.652Z,49.60
2018-06-12T11:30:28.405Z,49.60
2018-06-12T11:32:59.463Z,47.80
2018-06-12T11:35:29.682Z,47.20
2018-06-12T11:38:00.060Z,47.10
2018-06-12T11:40:31.619Z,46.60
2018-06-12T11:43:03.142Z,46.30
2018-06-12T11:45:35.030Z,46.00
2018-06-12T11:48:06.928Z,44.90
2018-06-12T11:50:38.904Z,44.40
2018-06-12T11:53:10.055Z,42.10
2018-06-12T11:55:41.119Z,43.10
2018-06-12T11:58:11.593Z,41.80
2018-06-12T12:00:42.905Z,41.80
2018-06-12T12:03:13.201Z,40.00
2018-06-12T12:05:43.964Z,41.70
2018-06-12T12:08:14.841Z,41.60
2018-06-12T12:10:45.656Z,41.10
2018-06-12T12:13:16.111Z,42.00
2018-06-12T12:15:47.387Z,41.10
2018-06-12T12:18:17.854Z,40.60
2018-06-12T12:20:48.248Z,39.90
2018-06-12T12:23:18.940Z,39.20
2018-06-12T12:25:49.579Z,41.10
2018-06-12T12:28:20.060Z,41.40
2018-06-12T12:30:51.158Z,40.80
2018-06-12T12:33:21.804Z,41.70
2018-06-12T12:35:52.099Z,43.40
2018-06-12T12:38:23.235Z,45.20
2018-06-12T12:40:53.787Z,44.30
2018-06-12T12:43:24.069Z,43.40
2018-06-12T12:45:54.299Z,44.00
2018-06-12T12:48:24.630Z,44.70
2018-06-12T12:50:55.081Z,46.00
2018-06-12T12:53:25.782Z,46.00
2018-06-12T12:55:56.510Z,44.50
2018-06-12T12:58:26.908Z,44.40
2018-06-12T13:00:57.099Z,43.30
2018-06-12T13:03:27.381Z,42.10
2018-06-12T13:06:05.313Z,41.90
2018-06-12T13:08:35.880Z,41.20
2018-06-12T13:11:06.554Z,39.40
2018-06-12T13:13:37.240Z,39.10
2018-06-12T13:16:07.524Z,38.60
2018-06-12T13:18:37.905Z,40.00
2018-06-12T13:21:08.239Z,40.60
2018-06-12T13:23:38.506Z,41.50
2018-06-12T13:26:08.766Z,42.60
2018-06-12T13:28:39.039Z,43.80
2018-06-12T13:31:09.451Z,44.40
2018-06-12T13:33:39.806Z,43.90
2018-06-12T13:36:11.262Z,44.50
2018-06-12T13:38:41.562Z,46.00
2018-06-12T13:41:11.811Z,44.60
2018-06-12T13:43:42.134Z,45.00
2018-06-12T13:46:12.351Z,44.40
2018-06-12T13:48:42.666Z,45.30
2018-06-12T13:51:12.898Z,45.30
2018-06-12T13:53:43.636Z,45.10
2018-06-12T13:56:13.954Z,44.30
2018-06-12T13:58:44.261Z,44.70
2018-06-12T14:01:14.509Z,44.60
2018-06-12T14:03:44.924Z,44.90
2018-06-12T14:06:15.293Z,44.70
2018-06-12T14:08:45.608Z,45.40
2018-06-12T14:11:18.916Z,46.40
2018-06-12T14:13:49.656Z,47.20
2018-06-12T14:16:20.363Z,48.50
2018-06-12T14:19:03.595Z,48.70
2018-06-12T14:21:33.954Z,48.30
2018-06-12T14:24:04.227Z,50.50
2018-06-12T14:26:40.170Z,51.90
2018-06-12T14:29:16.141Z,54.60
2018-06-12T14:31:49.572Z,54.70
2018-06-12T14:34:20.683Z,54.30
2018-06-12T14:36:50.899Z,54.50
2018-06-12T14:39:21.503Z,55.40
2018-06-12T14:41:51.835Z,54.70
2018-06-12T14:44:23.076Z,54.30
2018-06-12T14:49:23.412Z,52.70
2018-06-12T14:51:54.704Z,52.90
2018-06-12T14:54:25.415Z,53.50
2018-06-12T14:56:55.930Z,54.90
2018-06-12T14:59:26.519Z,56.00
2018-06-12T15:02:04.006Z,56.10
2018-06-12T15:04:37.189Z,56.00
2018-06-12T15:07:08.710Z,55.40
2018-06-12T15:09:45.269Z,54.50
2018-06-12T15:12:16.037Z,54.60
2018-06-12T15:14:46.515Z,54.60
2018-06-12T15:17:18.697Z,54.40
2018-06-12T15:19:49.103Z,54.20
2018-06-12T15:22:21.552Z,55.00
2018-06-12T15:24:53.547Z,55.20
2018-06-12T15:27:24.586Z,56.50
2018-06-12T15:29:56.805Z,57.40
2018-06-12T15:32:27.200Z,57.90
2018-06-12T15:34:57.579Z,57.60
2018-06-12T15:37:30.880Z,57.10
2018-06-12T15:40:04.970Z,57.00
2018-06-12T15:42:38.135Z,56.80
2018-06-12T15:45:09.156Z,57.10
2018-06-12T15:47:42.543Z,57.60
2018-06-12T15:50:13.283Z,58.20
2018-06-12T15:52:47.981Z,58.80
2018-06-12T15:55:22.483Z,58.90
2018-06-12T15:57:57.112Z,58.80
2018-06-12T16:00:32.312Z,59.50
2018-06-12T16:03:05.058Z,59.20
2018-06-12T16:05:36.021Z,58.90
2018-06-12T16:08:08.382Z,59.30
2018-06-12T16:10:43.198Z,58.80
2018-06-12T16:15:52.089Z,59.40
2018-06-12T16:18:26.353Z,59.60
2018-06-12T16:20:58.099Z,59.90
2018-06-12T16:23:29.772Z,60.50
2018-06-12T16:26:01.331Z,61.20
2018-06-12T16:28:32.578Z,60.80
2018-06-12T16:31:03.211Z,60.70
2018-06-12T16:33:37.447Z,61.00
2018-06-12T16:36:08.520Z,61.10
2018-06-12T16:38:41.664Z,61.40
2018-06-12T16:41:12.728Z,61.80
2018-06-12T16:43:47.791Z,62.70
2018-06-12T16:46:19.164Z,63.20
2018-06-12T16:48:53.060Z,63.60
2018-06-12T16:51:23.871Z,63.70
2018-06-12T16:53:54.104Z,62.80
2018-06-12T16:56:26.435Z,62.40
2018-06-12T16:58:56.749Z,62.50
2018-06-12T17:01:27.480Z,63.20
2018-06-12T17:03:57.904Z,63.00
2018-06-12T17:06:28.624Z,63.00
2018-06-12T17:08:58.883Z,63.60
2018-06-12T17:11:29.375Z,63.00
2018-06-12T17:13:59.643Z,63.00
2018-06-12T17:16:30.003Z,62.80
2018-06-12T17:19:00.503Z,62.90
2018-06-12T17:28:29.510Z,62.10
2018-06-12T17:30:59.723Z,63.00
2018-06-12T17:33:30.086Z,63.40
2018-06-12T17:36:00.376Z,64.30
2018-06-12T17:38:31.856Z,63.70
2018-06-12T17:41:02.107Z,63.50
2018-06-12T17:43:32.399Z,63.80
2018-06-12T17:46:02.730Z,64.10
2018-06-12T17:48:33.126Z,63.80
2018-06-12T17:51:04.829Z,63.50
2018-06-12T17:53:36.002Z,63.30
2018-06-12T17:56:13.041Z,63.40
2018-06-12T17:58:46.620Z,62.90
2018-06-12T18:01:19.455Z,62.70
2018-06-12T18:03:55.376Z,62.50
2018-06-12T18:06:29.830Z,62.10
2018-06-12T18:09:11.378Z,62.90
2018-06-12T18:11:44.951Z,62.40
2018-06-12T18:14:16.756Z,62.40
2018-06-12T18:16:47.166Z,62.20
2018-06-12T18:19:26.758Z,62.50
2018-06-12T18:21:58.390Z,62.80
2018-06-12T18:24:41.042Z,63.70
2018-06-12T18:27:50.846Z,64.30
2018-06-12T18:30:28.182Z,65.00
2018-06-12T18:33:04.828Z,66.00
2018-06-12T18:35:36.223Z,66.00
2018-06-12T18:38:06.684Z,66.20
2018-06-12T18:40:37.685Z,67.00
2018-06-12T18:43:08.071Z,67.90
2018-06-12T18:45:38.449Z,67.50
2018-06-12T18:48:08.865Z,67.50
2018-06-12T18:50:40.628Z,68.20
2018-06-12T18:53:10.986Z,68.50
2018-06-12T18:55:41.381Z,68.10
2018-06-12T18:58:11.830Z,67.30
2018-06-12T19:00:42.223Z,68.00
2018-06-12T19:03:12.922Z,68.10
2018-06-12T19:05:43.346Z,67.40
2018-06-12T19:08:15.115Z,67.60
2018-06-12T19:10:45.384Z,67.60
2018-06-12T19:13:15.839Z,68.50
2018-06-12T19:15:46.093Z,68.30
2018-06-12T19:18:16.497Z,67.70
2018-06-12T19:20:48.234Z,67.80
2018-06-12T19:23:18.535Z,68.70
2018-06-12T19:25:49.151Z,69.40
2018-06-12T19:28:19.878Z,69.60
2018-06-12T19:30:50.159Z,69.40
2018-06-12T19:33:20.527Z,68.90
2018-06-12T19:35:50.825Z,69.40
2018-06-12T19:38:21.116Z,70.30
2018-06-12T19:40:51.377Z,70.70
2018-06-12T19:43:21.760Z,71.10
2018-06-12T19:45:52.328Z,70.90
2018-06-12T19:48:22.699Z,70.80
2018-06-12T19:50:52.972Z,70.20
2018-06-12T19:53:23.223Z,70.70
2018-06-12T19:55:53.491Z,70.30
2018-06-12T19:58:23.884Z,69.70
2018-06-12T20:00:54.307Z,69.10
2018-06-12T20:03:24.876Z,69.60
2018-06-12T20:05:56.433Z,69.40
2018-06-12T20:08:27.316Z,69.90
2018-06-12T20:10:57.770Z,70.00
2018-06-12T20:13:28.048Z,69.20
2018-06-12T20:15:58.281Z,70.40
2018-06-12T20:18:28.883Z,70.10
2018-06-12T20:20:59.139Z,69.90
2018-06-12T20:23:30.270Z,69.90
2018-06-12T20:26:00.518Z,69.70
2018-06-12T20:28:30.847Z,70.00
2018-06-12T20:31:01.112Z,69.60
2018-06-12T20:33:31.395Z,69.80
2018-06-12T20:36:01.745Z,70.10
2018-06-12T20:38:32.013Z,70.50
2018-06-12T20:41:02.300Z,70.10
2018-06-12T20:43:32.598Z,70.10
2018-06-12T20:46:03.036Z,69.50
2018-06-12T20:48:33.463Z,69.00
2018-06-12T20:51:04.492Z,69.20
2018-06-12T20:53:34.891Z,68.90
2018-06-12T20:56:05.316Z,68.70
2018-06-12T20:58:35.714Z,68.90
2018-06-12T21:01:06.016Z,69.40
2018-06-12T21:03:36.259Z,69.60
2018-06-12T21:06:06.628Z,69.20
2018-06-12T21:08:36.875Z,68.60
2018-06-12T21:11:07.791Z,68.40
2018-06-12T21:13:38.166Z,67.80
2018-06-12T21:16:08.483Z,68.30
2018-06-12T21:18:38.820Z,69.00
2018-06-12T21:21:09.099Z,68.50
2018-06-12T21:23:39.368Z,68.50
2018-06-12T21:26:09.642Z,68.90
2018-06-12T21:28:40.279Z,69.10
2018-06-12T21:31:10.856Z,68.50
2018-06-12T21:33:41.167Z,68.40
2018-06-12T21:36:11.430Z,68.60
2018-06-12T21:38:41.695Z,67.70
2018-06-12T21:41:12.044Z,67.60
2018-06-12T21:43:42.401Z,67.80
2018-06-12T21:46:12.664Z,68.50
2018-06-12T21:48:42.936Z,68.30
2018-06-12T21:51:13.191Z,67.70
2018-06-12T21:53:43.510Z,68.00
2018-06-12T21:56:13.822Z,68.50
2018-06-12T21:58:44.210Z,67.80
2018-06-12T22:01:14.581Z,67.40
2018-06-12T22:03:44.869Z,67.60
2018-06-12T22:06:17.160Z,67.50
2018-06-12T22:08:47.445Z,67.20
2018-06-12T22:11:17.664Z,67.50
2018-06-12T22:13:47.962Z,67.60
2018-06-12T22:16:24.123Z,68.10
2018-06-12T22:18:54.417Z,68.50
2018-06-12T22:21:24.721Z,68.20
2018-06-12T22:23:54.986Z,68.30
2018-06-12T22:26:25.374Z,68.50
2018-06-12T22:28:55.619Z,68.10
2018-06-12T22:31:26.003Z,68.10
2018-06-12T22:33:56.476Z,67.80
2018-06-12T22:36:26.759Z,67.50
2018-06-12T22:38:57.001Z,67.50
2018-06-12T22:41:27.207Z,67.80
2018-06-12T22:43:57.475Z,68.00
2018-06-12T22:46:27.743Z,68.30
2018-06-12T22:48:58.038Z,68.10
2018-06-12T22:51:28.251Z,68.10
2018-06-12T22:53:58.495Z,67.60
2018-06-12T22:56:28.780Z,67.00
2018-06-12T22:58:59.007Z,67.10
2018-06-12T23:01:29.399Z,67.20
2018-06-12T23:03:59.621Z,66.80
2018-06-12T23:06:30.296Z,66.40
2018-06-12T23:09:00.512Z,66.70
2018-06-12T23:11:31.731Z,66.50
2018-06-12T23:14:02.799Z,66.60
2018-06-12T23:16:33.516Z,66.90
2018-06-12T23:19:04.675Z,66.40
2018-06-12T23:22:13.912Z,66.40
2018-06-12T23:24:44.528Z,66.90
2018-06-12T23:27:15.569Z,66.80
2018-06-12T23:29:45.994Z,67.20
2018-06-12T23:32:17.247Z,67.40
2018-06-12T23:34:47.542Z,67.20
2018-06-12T23:37:18.522Z,67.80
2018-06-12T23:39:48.799Z,68.20
2018-06-12T23:42:19.086Z,68.00
2018-06-12T23:44:50.244Z,67.40
2018-06-12T23:47:21.041Z,67.70
2018-06-12T23:49:51.935Z,66.90
2018-06-12T23:52:22.195Z,68.10
2018-06-12T23:54:52.734Z,67.30
2018-06-12T23:57:23.015Z,67.20
2018-06-12T23:59:53.338Z,67.20
